sensor_id;sensor_type;location;lat;lon;timestamp;temperature;humidity
42835;DHT22;29335;50.526;30.458;2022-10-17T00:00:15;6.20;99.90
42835;DHT22;29335;50.526;30.458;2022-10-17T00:02:41;6.20;99.90
42835;DHT22;29335;50.526;30.458;2022-10-17T00:05:06;6.10;99.90
42835;DHT22;29335;50.526;30.458;2022-10-17T00:07:32;4.70;99.90
42835;DHT22;29335;50.526;30.458;2022-10-17T00:09:58;6.10;99.90
42835;DHT22;29335;50.526;30.458;2022-10-17T00:12:23;6.10;99.90
42835;DHT22;29335;50.526;30.458;2022-10-17T00:14:49;6.10;99.90
42835;DHT22;29335;50.526;30.458;2022-10-17T00:17:14;6.10;99.90
42835;DHT22;29335;50.526;30.458;2022-10-17T00:19:41;6.00;99.90
42835;DHT22;29335;50.526;30.458;2022-10-17T00:22:06;6.00;99.90
42835;DHT22;29335;50.526;30.458;2022-10-17T00:24:32;5.80;99.90
42835;DHT22;29335;50.526;30.458;2022-10-17T00:26:57;5.90;99.90
42835;DHT22;29335;50.526;30.458;2022-10-17T00:29:23;5.80;99.90
42835;DHT22;29335;50.526;30.458;2022-10-17T00:31:48;5.80;99.90
42835;DHT22;29335;50.526;30.458;2022-10-17T00:34:14;5.90;99.90
42835;DHT22;29335;50.526;30.458;2022-10-17T00:36:40;5.80;99.90
42835;DHT22;29335;50.526;30.458;2022-10-17T00:39:05;5.80;99.90
42835;DHT22;29335;50.526;30.458;2022-10-17T00:41:32;5.90;99.90
42835;DHT22;29335;50.526;30.458;2022-10-17T00:44:03;5.90;99.90
42835;DHT22;29335;50.526;30.458;2022-10-17T00:46:33;5.90;99.90
42835;DHT22;29335;50.526;30.458;2022-10-17T00:49:03;5.90;99.90
42835;DHT22;29335;50.526;30.458;2022-10-17T00:51:51;5.90;99.90
42835;DHT22;29335;50.526;30.458;2022-10-17T00:54:21;5.90;99.90
42835;DHT22;29335;50.526;30.458;2022-10-17T00:56:48;5.80;99.90
42835;DHT22;29335;50.526;30.458;2022-10-17T00:59:15;5.80;99.90
42835;DHT22;29335;50.526;30.458;2022-10-17T01:01:45;5.80;99.90
42835;DHT22;29335;50.526;30.458;2022-10-17T01:04:13;5.70;99.90
42835;DHT22;29335;50.526;30.458;2022-10-17T01:06:39;5.70;99.90
42835;DHT22;29335;50.526;30.458;2022-10-17T01:09:04;5.70;99.90
42835;DHT22;29335;50.526;30.458;2022-10-17T01:11:55;5.70;99.90
42835;DHT22;29335;50.526;30.458;2022-10-17T01:14:30;5.70;99.90
42835;DHT22;29335;50.526;30.458;2022-10-17T01:20:00;5.80;99.90
42835;DHT22;29335;50.526;30.458;2022-10-17T01:22:51;5.80;99.90
42835;DHT22;29335;50.526;30.458;2022-10-17T01:26:00;5.90;99.90
42835;DHT22;29335;50.526;30.458;2022-10-17T01:31:21;5.90;99.90
42835;DHT22;29335;50.526;30.458;2022-10-17T01:39:24;6.00;99.90
42835;DHT22;29335;50.526;30.458;2022-10-17T01:44:52;5.90;99.90
42835;DHT22;29335;50.526;30.458;2022-10-17T01:47:23;6.00;99.90
42835;DHT22;29335;50.526;30.458;2022-10-17T01:49:53;6.00;99.90
42835;DHT22;29335;50.526;30.458;2022-10-17T01:52:23;6.00;99.90
42835;DHT22;29335;50.526;30.458;2022-10-17T01:54:54;6.00;99.90
42835;DHT22;29335;50.526;30.458;2022-10-17T01:57:28;5.90;99.90
42835;DHT22;29335;50.526;30.458;2022-10-17T01:59:55;5.90;99.90
42835;DHT22;29335;50.526;30.458;2022-10-17T02:02:22;6.00;99.90
42835;DHT22;29335;50.526;30.458;2022-10-17T02:04:50;6.00;99.90
42835;DHT22;29335;50.526;30.458;2022-10-17T02:07:16;6.00;99.90
42835;DHT22;29335;50.526;30.458;2022-10-17T02:09:42;6.00;99.90
42835;DHT22;29335;50.526;30.458;2022-10-17T02:20:55;6.10;99.90
42835;DHT22;29335;50.526;30.458;2022-10-17T02:28:59;6.10;99.90
42835;DHT22;29335;50.526;30.458;2022-10-17T02:31:35;6.10;99.90
42835;DHT22;29335;50.526;30.458;2022-10-17T02:34:27;6.10;99.90
42835;DHT22;29335;50.526;30.458;2022-10-17T02:36:58;6.10;99.90
42835;DHT22;29335;50.526;30.458;2022-10-17T02:39:25;6.10;99.90
42835;DHT22;29335;50.526;30.458;2022-10-17T02:41:54;6.10;99.90
42835;DHT22;29335;50.526;30.458;2022-10-17T02:44:21;6.10;99.90
42835;DHT22;29335;50.526;30.458;2022-10-17T02:46:52;6.20;99.90
42835;DHT22;29335;50.526;30.458;2022-10-17T02:49:27;6.90;99.90
42835;DHT22;29335;50.526;30.458;2022-10-17T02:57:36;6.20;99.90
42835;DHT22;29335;50.526;30.458;2022-10-17T03:00:06;6.20;99.90
42835;DHT22;29335;50.526;30.458;2022-10-17T03:02:40;6.20;99.90
42835;DHT22;29335;50.526;30.458;2022-10-17T03:05:07;6.20;99.90
42835;DHT22;29335;50.526;30.458;2022-10-17T03:07:33;6.30;99.90
42835;DHT22;29335;50.526;30.458;2022-10-17T03:09:59;6.30;99.90
42835;DHT22;29335;50.526;30.458;2022-10-17T03:12:24;6.30;99.90
42835;DHT22;29335;50.526;30.458;2022-10-17T03:14:50;6.40;99.90
42835;DHT22;29335;50.526;30.458;2022-10-17T03:17:15;6.40;99.90
42835;DHT22;29335;50.526;30.458;2022-10-17T03:19:41;6.30;99.90
42835;DHT22;29335;50.526;30.458;2022-10-17T03:22:06;6.40;99.90
42835;DHT22;29335;50.526;30.458;2022-10-17T03:24:32;6.50;99.90
42835;DHT22;29335;50.526;30.458;2022-10-17T03:26:57;6.40;99.90
42835;DHT22;29335;50.526;30.458;2022-10-17T03:29:23;6.50;99.90
42835;DHT22;29335;50.526;30.458;2022-10-17T03:31:48;6.50;99.90
42835;DHT22;29335;50.526;30.458;2022-10-17T03:34:14;6.50;99.90
42835;DHT22;29335;50.526;30.458;2022-10-17T03:36:43;6.50;99.90
42835;DHT22;29335;50.526;30.458;2022-10-17T03:39:08;6.50;99.90
42835;DHT22;29335;50.526;30.458;2022-10-17T03:41:34;6.50;99.90
42835;DHT22;29335;50.526;30.458;2022-10-17T03:44:00;6.50;99.90
42835;DHT22;29335;50.526;30.458;2022-10-17T03:46:25;6.30;99.90
42835;DHT22;29335;50.526;30.458;2022-10-17T03:48:51;6.40;99.90
42835;DHT22;29335;50.526;30.458;2022-10-17T03:51:16;6.30;99.90
42835;DHT22;29335;50.526;30.458;2022-10-17T03:53:42;6.30;99.90
42835;DHT22;29335;50.526;30.458;2022-10-17T03:56:29;6.30;99.90
42835;DHT22;29335;50.526;30.458;2022-10-17T03:58:54;6.30;99.90
42835;DHT22;29335;50.526;30.458;2022-10-17T04:01:20;6.20;99.90
42835;DHT22;29335;50.526;30.458;2022-10-17T04:03:50;6.20;99.90
42835;DHT22;29335;50.526;30.458;2022-10-17T04:06:17;6.20;99.90
42835;DHT22;29335;50.526;30.458;2022-10-17T04:08:42;6.20;99.90
42835;DHT22;29335;50.526;30.458;2022-10-17T04:11:10;6.20;99.90
42835;DHT22;29335;50.526;30.458;2022-10-17T04:13:37;6.20;99.90
42835;DHT22;29335;50.526;30.458;2022-10-17T04:16:07;6.20;99.90
42835;DHT22;29335;50.526;30.458;2022-10-17T04:18:33;6.20;99.90
42835;DHT22;29335;50.526;30.458;2022-10-17T04:21:03;6.20;99.90
42835;DHT22;29335;50.526;30.458;2022-10-17T04:23:29;6.20;99.90
42835;DHT22;29335;50.526;30.458;2022-10-17T04:25:56;6.20;99.90
42835;DHT22;29335;50.526;30.458;2022-10-17T04:28:22;6.10;99.90
42835;DHT22;29335;50.526;30.458;2022-10-17T04:30:54;6.10;99.90
42835;DHT22;29335;50.526;30.458;2022-10-17T04:33:19;6.10;99.90
42835;DHT22;29335;50.526;30.458;2022-10-17T04:36:04;6.10;99.90
42835;DHT22;29335;50.526;30.458;2022-10-17T04:38:30;6.00;99.90
42835;DHT22;29335;50.526;30.458;2022-10-17T04:41:00;6.00;99.90
42835;DHT22;29335;50.526;30.458;2022-10-17T04:43:30;6.00;99.90
42835;DHT22;29335;50.526;30.458;2022-10-17T04:46:04;6.00;99.90
42835;DHT22;29335;50.526;30.458;2022-10-17T04:48:30;5.90;99.90
42835;DHT22;29335;50.526;30.458;2022-10-17T04:51:00;6.00;99.90
42835;DHT22;29335;50.526;30.458;2022-10-17T04:53:27;6.00;99.90
42835;DHT22;29335;50.526;30.458;2022-10-17T04:55:53;6.10;99.90
42835;DHT22;29335;50.526;30.458;2022-10-17T04:58:19;6.10;99.90
42835;DHT22;29335;50.526;30.458;2022-10-17T05:00:45;6.20;99.90
42835;DHT22;29335;50.526;30.458;2022-10-17T05:03:10;6.20;99.90
42835;DHT22;29335;50.526;30.458;2022-10-17T05:05:37;6.30;99.90
42835;DHT22;29335;50.526;30.458;2022-10-17T05:08:04;6.30;99.90
42835;DHT22;29335;50.526;30.458;2022-10-17T05:10:34;7.10;99.90
42835;DHT22;29335;50.526;30.458;2022-10-17T05:13:00;6.20;99.90
42835;DHT22;29335;50.526;30.458;2022-10-17T05:15:25;6.30;99.90
42835;DHT22;29335;50.526;30.458;2022-10-17T05:17:54;6.40;99.90
42835;DHT22;29335;50.526;30.458;2022-10-17T05:20:20;6.40;99.90
42835;DHT22;29335;50.526;30.458;2022-10-17T05:22:45;6.40;99.90
42835;DHT22;29335;50.526;30.458;2022-10-17T05:25:11;6.50;99.90
42835;DHT22;29335;50.526;30.458;2022-10-17T05:27:37;6.60;99.90
42835;DHT22;29335;50.526;30.458;2022-10-17T05:30:03;6.70;99.90
42835;DHT22;29335;50.526;30.458;2022-10-17T05:32:29;6.70;99.90
42835;DHT22;29335;50.526;30.458;2022-10-17T05:34:54;6.70;99.90
42835;DHT22;29335;50.526;30.458;2022-10-17T05:37:20;9.30;99.90
42835;DHT22;29335;50.526;30.458;2022-10-17T05:39:46;6.90;99.90
42835;DHT22;29335;50.526;30.458;2022-10-17T05:42:11;8.70;99.90
42835;DHT22;29335;50.526;30.458;2022-10-17T05:44:37;7.10;99.90
42835;DHT22;29335;50.526;30.458;2022-10-17T05:47:04;7.10;99.90
42835;DHT22;29335;50.526;30.458;2022-10-17T05:49:29;7.10;99.90
42835;DHT22;29335;50.526;30.458;2022-10-17T05:51:55;7.10;99.90
42835;DHT22;29335;50.526;30.458;2022-10-17T05:54:20;7.10;99.90
42835;DHT22;29335;50.526;30.458;2022-10-17T05:56:53;7.20;99.90
42835;DHT22;29335;50.526;30.458;2022-10-17T05:59:19;7.30;99.90
42835;DHT22;29335;50.526;30.458;2022-10-17T06:01:45;8.50;99.90
42835;DHT22;29335;50.526;30.458;2022-10-17T06:04:10;7.40;99.90
42835;DHT22;29335;50.526;30.458;2022-10-17T06:06:37;7.50;99.90
42835;DHT22;29335;50.526;30.458;2022-10-17T06:09:03;7.50;99.90
42835;DHT22;29335;50.526;30.458;2022-10-17T06:11:29;7.60;99.90
42835;DHT22;29335;50.526;30.458;2022-10-17T06:13:54;7.80;99.90
42835;DHT22;29335;50.526;30.458;2022-10-17T06:16:20;7.80;99.90
42835;DHT22;29335;50.526;30.458;2022-10-17T06:18:46;7.90;99.90
42835;DHT22;29335;50.526;30.458;2022-10-17T06:21:15;8.00;99.70
42835;DHT22;29335;50.526;30.458;2022-10-17T06:23:41;8.10;99.50
42835;DHT22;29335;50.526;30.458;2022-10-17T06:26:07;8.10;99.40
42835;DHT22;29335;50.526;30.458;2022-10-17T06:28:34;8.30;99.20
42835;DHT22;29335;50.526;30.458;2022-10-17T06:31:06;8.50;99.00
42835;DHT22;29335;50.526;30.458;2022-10-17T06:33:32;8.40;98.90
42835;DHT22;29335;50.526;30.458;2022-10-17T06:35:58;8.50;98.90
42835;DHT22;29335;50.526;30.458;2022-10-17T06:38:24;8.60;98.70
42835;DHT22;29335;50.526;30.458;2022-10-17T06:40:49;8.60;98.60
42835;DHT22;29335;50.526;30.458;2022-10-17T06:43:15;8.80;98.10
42835;DHT22;29335;50.526;30.458;2022-10-17T06:45:41;8.90;98.10
42835;DHT22;29335;50.526;30.458;2022-10-17T06:48:06;8.90;97.70
42835;DHT22;29335;50.526;30.458;2022-10-17T06:50:33;9.00;97.40
42835;DHT22;29335;50.526;30.458;2022-10-17T06:52:59;11.10;97.90
42835;DHT22;29335;50.526;30.458;2022-10-17T06:55:24;9.30;97.30
42835;DHT22;29335;50.526;30.458;2022-10-17T06:57:50;9.10;97.00
42835;DHT22;29335;50.526;30.458;2022-10-17T07:00:17;9.20;96.80
42835;DHT22;29335;50.526;30.458;2022-10-17T07:02:43;9.20;96.80
42835;DHT22;29335;50.526;30.458;2022-10-17T07:05:09;9.40;96.60
42835;DHT22;29335;50.526;30.458;2022-10-17T07:07:34;9.40;96.50
42835;DHT22;29335;50.526;30.458;2022-10-17T07:10:00;9.50;96.40
42835;DHT22;29335;50.526;30.458;2022-10-17T07:12:25;9.50;96.20
42835;DHT22;29335;50.526;30.458;2022-10-17T07:14:52;9.60;96.10
42835;DHT22;29335;50.526;30.458;2022-10-17T07:17:17;10.60;96.30
42835;DHT22;29335;50.526;30.458;2022-10-17T07:19:43;9.70;96.00
42835;DHT22;29335;50.526;30.458;2022-10-17T07:22:10;9.80;95.70
42835;DHT22;29335;50.526;30.458;2022-10-17T07:24:36;9.90;95.60
42835;DHT22;29335;50.526;30.458;2022-10-17T07:27:02;10.90;95.70
42835;DHT22;29335;50.526;30.458;2022-10-17T07:29:28;10.10;95.30
42835;DHT22;29335;50.526;30.458;2022-10-17T07:31:53;10.20;95.10
42835;DHT22;29335;50.526;30.458;2022-10-17T07:34:19;10.30;94.80
42835;DHT22;29335;50.526;30.458;2022-10-17T07:36:45;10.40;94.70
42835;DHT22;29335;50.526;30.458;2022-10-17T07:39:11;10.50;94.60
42835;DHT22;29335;50.526;30.458;2022-10-17T07:41:36;10.70;94.40
42835;DHT22;29335;50.526;30.458;2022-10-17T07:44:02;10.60;94.20
42835;DHT22;29335;50.526;30.458;2022-10-17T07:46:28;10.80;94.00
42835;DHT22;29335;50.526;30.458;2022-10-17T07:48:54;10.80;93.80
42835;DHT22;29335;50.526;30.458;2022-10-17T07:51:19;10.80;93.60
42835;DHT22;29335;50.526;30.458;2022-10-17T07:53:46;14.60;94.30
42835;DHT22;29335;50.526;30.458;2022-10-17T07:56:12;11.00;93.30
42835;DHT22;29335;50.526;30.458;2022-10-17T07:58:38;11.10;93.10
42835;DHT22;29335;50.526;30.458;2022-10-17T08:01:07;11.00;93.00
42835;DHT22;29335;50.526;30.458;2022-10-17T08:03:33;11.10;92.80
42835;DHT22;29335;50.526;30.458;2022-10-17T08:06:00;11.20;92.50
42835;DHT22;29335;50.526;30.458;2022-10-17T08:08:26;11.80;92.60
42835;DHT22;29335;50.526;30.458;2022-10-17T08:10:52;11.40;92.40
42835;DHT22;29335;50.526;30.458;2022-10-17T08:13:20;11.30;92.40
42835;DHT22;29335;50.526;30.458;2022-10-17T08:15:45;11.40;92.20
42835;DHT22;29335;50.526;30.458;2022-10-17T08:18:13;11.60;91.80
42835;DHT22;29335;50.526;30.458;2022-10-17T08:20:39;11.50;91.60
42835;DHT22;29335;50.526;30.458;2022-10-17T08:23:05;11.60;91.50
42835;DHT22;29335;50.526;30.458;2022-10-17T08:25:31;11.70;91.40
42835;DHT22;29335;50.526;30.458;2022-10-17T08:27:57;11.70;91.20
42835;DHT22;29335;50.526;30.458;2022-10-17T08:30:22;13.40;91.60
42835;DHT22;29335;50.526;30.458;2022-10-17T08:32:48;11.80;91.20
42835;DHT22;29335;50.526;30.458;2022-10-17T08:35:14;11.90;91.40
42835;DHT22;29335;50.526;30.458;2022-10-17T08:37:40;14.50;91.70
42835;DHT22;29335;50.526;30.458;2022-10-17T08:40:06;14.10;91.50
42835;DHT22;29335;50.526;30.458;2022-10-17T08:45:31;12.10;90.80
42835;DHT22;29335;50.526;30.458;2022-10-17T08:48:07;12.20;90.60
42835;DHT22;29335;50.526;30.458;2022-10-17T08:50:35;12.30;90.60
42835;DHT22;29335;50.526;30.458;2022-10-17T08:55:38;12.50;90.10
42835;DHT22;29335;50.526;30.458;2022-10-17T08:58:13;13.50;90.10
42835;DHT22;29335;50.526;30.458;2022-10-17T09:00:42;12.60;89.80
42835;DHT22;29335;50.526;30.458;2022-10-17T09:06:24;12.60;89.40
42835;DHT22;29335;50.526;30.458;2022-10-17T09:12:16;12.80;89.00
42835;DHT22;29335;50.526;30.458;2022-10-17T09:20:08;13.10;88.30
42835;DHT22;29335;50.526;30.458;2022-10-17T09:22:57;13.10;88.60
42835;DHT22;29335;50.526;30.458;2022-10-17T09:25:23;13.20;87.70
42835;DHT22;29335;50.526;30.458;2022-10-17T09:28:05;13.20;87.30
42835;DHT22;29335;50.526;30.458;2022-10-17T09:31:15;13.30;87.10
42835;DHT22;29335;50.526;30.458;2022-10-17T09:33:45;13.30;86.90
42835;DHT22;29335;50.526;30.458;2022-10-17T09:36:35;13.40;86.70
42835;DHT22;29335;50.526;30.458;2022-10-17T09:41:47;13.50;85.20
42835;DHT22;29335;50.526;30.458;2022-10-17T09:46:39;14.00;84.80
42835;DHT22;29335;50.526;30.458;2022-10-17T09:49:13;14.30;85.10
42835;DHT22;29335;50.526;30.458;2022-10-17T09:51:41;13.80;84.30
42835;DHT22;29335;50.526;30.458;2022-10-17T09:54:31;13.80;84.50
42835;DHT22;29335;50.526;30.458;2022-10-17T09:57:03;14.00;84.30
42835;DHT22;29335;50.526;30.458;2022-10-17T09:59:32;14.10;84.20
42835;DHT22;29335;50.526;30.458;2022-10-17T10:02:13;16.20;85.40
42835;DHT22;29335;50.526;30.458;2022-10-17T10:07:28;14.10;83.40
42835;DHT22;29335;50.526;30.458;2022-10-17T10:09:55;14.10;83.30
42835;DHT22;29335;50.526;30.458;2022-10-17T10:12:26;14.20;82.80
42835;DHT22;29335;50.526;30.458;2022-10-17T10:14:53;15.00;83.00
42835;DHT22;29335;50.526;30.458;2022-10-17T10:17:35;14.40;82.30
42835;DHT22;29335;50.526;30.458;2022-10-17T10:20:03;14.40;81.80
42835;DHT22;29335;50.526;30.458;2022-10-17T10:23:21;17.10;83.10
42835;DHT22;29335;50.526;30.458;2022-10-17T10:25:58;14.50;81.00
42835;DHT22;29335;50.526;30.458;2022-10-17T10:28:28;14.50;80.70
42835;DHT22;29335;50.526;30.458;2022-10-17T10:30:55;14.50;80.80
42835;DHT22;29335;50.526;30.458;2022-10-17T10:33:25;15.50;81.50
42835;DHT22;29335;50.526;30.458;2022-10-17T10:35:55;14.70;80.30
42835;DHT22;29335;50.526;30.458;2022-10-17T10:38:22;14.80;80.20
42835;DHT22;29335;50.526;30.458;2022-10-17T10:41:03;14.80;79.80
42835;DHT22;29335;50.526;30.458;2022-10-17T10:46:04;14.90;79.10
42835;DHT22;29335;50.526;30.458;2022-10-17T10:48:35;16.10;79.00
42835;DHT22;29335;50.526;30.458;2022-10-17T10:51:12;15.00;77.90
42835;DHT22;29335;50.526;30.458;2022-10-17T10:53:54;15.90;78.20
42835;DHT22;29335;50.526;30.458;2022-10-17T10:56:40;15.10;77.10
42835;DHT22;29335;50.526;30.458;2022-10-17T11:07:14;15.50;76.00
42835;DHT22;29335;50.526;30.458;2022-10-17T11:15:08;15.80;75.30
42835;DHT22;29335;50.526;30.458;2022-10-17T11:17:56;15.70;75.00
42835;DHT22;29335;50.526;30.458;2022-10-17T11:23:27;16.50;74.30
42835;DHT22;29335;50.526;30.458;2022-10-17T11:25:58;15.80;73.90
42835;DHT22;29335;50.526;30.458;2022-10-17T11:28:24;16.00;73.70
42835;DHT22;29335;50.526;30.458;2022-10-17T11:31:06;16.10;73.60
42835;DHT22;29335;50.526;30.458;2022-10-17T11:33:44;15.90;72.80
42835;DHT22;29335;50.526;30.458;2022-10-17T11:36:11;15.90;72.40
42835;DHT22;29335;50.526;30.458;2022-10-17T11:41:53;15.90;72.50
42835;DHT22;29335;50.526;30.458;2022-10-17T11:44:38;16.00;72.50
42835;DHT22;29335;50.526;30.458;2022-10-17T11:52:54;16.10;71.80
42835;DHT22;29335;50.526;30.458;2022-10-17T11:55:24;16.10;72.20
42835;DHT22;29335;50.526;30.458;2022-10-17T12:06:03;16.20;71.60
42835;DHT22;29335;50.526;30.458;2022-10-17T12:08:46;16.20;71.20
42835;DHT22;29335;50.526;30.458;2022-10-17T12:13:55;16.30;71.10
42835;DHT22;29335;50.526;30.458;2022-10-17T12:22:20;16.40;71.00
42835;DHT22;29335;50.526;30.458;2022-10-17T12:25:03;16.50;70.10
42835;DHT22;29335;50.526;30.458;2022-10-17T12:27:38;16.40;70.20
42835;DHT22;29335;50.526;30.458;2022-10-17T12:33:19;16.50;69.00
42835;DHT22;29335;50.526;30.458;2022-10-17T12:35:48;16.90;69.20
42835;DHT22;29335;50.526;30.458;2022-10-17T12:45:50;16.60;68.30
42835;DHT22;29335;50.526;30.458;2022-10-17T12:51:14;16.60;68.10
42835;DHT22;29335;50.526;30.458;2022-10-17T12:53:49;17.50;68.50
42835;DHT22;29335;50.526;30.458;2022-10-17T12:56:35;17.40;68.20
42835;DHT22;29335;50.526;30.458;2022-10-17T12:59:08;16.70;67.60
42835;DHT22;29335;50.526;30.458;2022-10-17T13:01:38;16.70;67.90
42835;DHT22;29335;50.526;30.458;2022-10-17T13:04:04;18.40;69.40
42835;DHT22;29335;50.526;30.458;2022-10-17T13:06:35;18.30;68.70
42835;DHT22;29335;50.526;30.458;2022-10-17T13:09:06;18.70;68.50
42835;DHT22;29335;50.526;30.458;2022-10-17T13:11:33;16.60;67.60
42835;DHT22;29335;50.526;30.458;2022-10-17T13:14:02;19.00;69.00
42835;DHT22;29335;50.526;30.458;2022-10-17T13:16:34;17.80;68.20
42835;DHT22;29335;50.526;30.458;2022-10-17T13:19:02;19.00;68.90
42835;DHT22;29335;50.526;30.458;2022-10-17T13:21:28;16.70;67.20
42835;DHT22;29335;50.526;30.458;2022-10-17T13:23:54;18.00;67.80
42835;DHT22;29335;50.526;30.458;2022-10-17T13:26:23;16.70;67.30
42835;DHT22;29335;50.526;30.458;2022-10-17T13:29:05;16.80;67.10
42835;DHT22;29335;50.526;30.458;2022-10-17T13:31:34;16.70;67.00
42835;DHT22;29335;50.526;30.458;2022-10-17T13:34:03;18.60;67.70
42835;DHT22;29335;50.526;30.458;2022-10-17T13:36:30;17.10;66.90
42835;DHT22;29335;50.526;30.458;2022-10-17T13:39:05;16.80;66.40
42835;DHT22;29335;50.526;30.458;2022-10-17T13:41:32;16.80;66.30
42835;DHT22;29335;50.526;30.458;2022-10-17T13:44:00;16.90;66.10
42835;DHT22;29335;50.526;30.458;2022-10-17T13:46:31;16.90;65.70
42835;DHT22;29335;50.526;30.458;2022-10-17T13:48:59;17.00;65.70
42835;DHT22;29335;50.526;30.458;2022-10-17T13:51:33;16.90;65.70
42835;DHT22;29335;50.526;30.458;2022-10-17T13:53:58;16.90;65.50
42835;DHT22;29335;50.526;30.458;2022-10-17T13:56:25;17.80;66.00
42835;DHT22;29335;50.526;30.458;2022-10-17T13:59:07;16.90;65.60
42835;DHT22;29335;50.526;30.458;2022-10-17T14:01:38;19.90;67.70
42835;DHT22;29335;50.526;30.458;2022-10-17T14:04:04;16.90;65.90
42835;DHT22;29335;50.526;30.458;2022-10-17T14:06:30;17.20;66.20
42835;DHT22;29335;50.526;30.458;2022-10-17T14:09:02;16.70;66.00
42835;DHT22;29335;50.526;30.458;2022-10-17T14:11:33;17.30;66.70
42835;DHT22;29335;50.526;30.458;2022-10-17T14:14:00;17.00;66.50
42835;DHT22;29335;50.526;30.458;2022-10-17T14:16:37;18.00;67.20
42835;DHT22;29335;50.526;30.458;2022-10-17T14:19:04;16.70;66.50
42835;DHT22;29335;50.526;30.458;2022-10-17T14:21:31;18.80;67.60
42835;DHT22;29335;50.526;30.458;2022-10-17T14:26:53;16.50;66.80
42835;DHT22;29335;50.526;30.458;2022-10-17T14:29:23;16.80;67.30
42835;DHT22;29335;50.526;30.458;2022-10-17T14:31:57;16.40;67.60
42835;DHT22;29335;50.526;30.458;2022-10-17T14:34:28;16.40;67.40
42835;DHT22;29335;50.526;30.458;2022-10-17T14:36:55;16.30;67.20
42835;DHT22;29335;50.526;30.458;2022-10-17T14:39:23;16.30;67.10
42835;DHT22;29335;50.526;30.458;2022-10-17T14:41:50;16.30;67.20
42835;DHT22;29335;50.526;30.458;2022-10-17T14:44:22;16.30;67.10
42835;DHT22;29335;50.526;30.458;2022-10-17T14:46:59;16.50;67.30
42835;DHT22;29335;50.526;30.458;2022-10-17T14:54:43;16.40;67.20
42835;DHT22;29335;50.526;30.458;2022-10-17T14:57:44;16.60;67.60
42835;DHT22;29335;50.526;30.458;2022-10-17T15:00:14;16.30;68.20
42835;DHT22;29335;50.526;30.458;2022-10-17T15:02:41;16.20;67.90
42835;DHT22;29335;50.526;30.458;2022-10-17T15:05:06;16.10;68.00
42835;DHT22;29335;50.526;30.458;2022-10-17T15:07:32;16.10;68.10
42835;DHT22;29335;50.526;30.458;2022-10-17T15:09:58;16.50;68.70
42835;DHT22;29335;50.526;30.458;2022-10-17T15:12:24;16.00;68.50
42835;DHT22;29335;50.526;30.458;2022-10-17T15:14:50;17.00;69.20
42835;DHT22;29335;50.526;30.458;2022-10-17T15:17:26;15.90;68.90
42835;DHT22;29335;50.526;30.458;2022-10-17T15:19:52;15.80;69.20
42835;DHT22;29335;50.526;30.458;2022-10-17T15:22:18;15.70;69.40
42835;DHT22;29335;50.526;30.458;2022-10-17T15:24:44;15.70;69.40
42835;DHT22;29335;50.526;30.458;2022-10-17T15:27:18;15.60;69.70
42835;DHT22;29335;50.526;30.458;2022-10-17T15:29:44;15.90;69.80
42835;DHT22;29335;50.526;30.458;2022-10-17T15:32:10;15.50;69.70
42835;DHT22;29335;50.526;30.458;2022-10-17T15:34:36;16.80;70.70
42835;DHT22;29335;50.526;30.458;2022-10-17T15:37:03;16.10;70.60
42835;DHT22;29335;50.526;30.458;2022-10-17T15:39:29;15.30;70.30
42835;DHT22;29335;50.526;30.458;2022-10-17T15:41:55;15.30;71.00
42835;DHT22;29335;50.526;30.458;2022-10-17T15:44:22;15.50;70.60
42835;DHT22;29335;50.526;30.458;2022-10-17T15:46:47;15.20;70.70
42835;DHT22;29335;50.526;30.458;2022-10-17T15:49:15;15.20;70.90
42835;DHT22;29335;50.526;30.458;2022-10-17T15:51:42;15.20;71.10
42835;DHT22;29335;50.526;30.458;2022-10-17T15:54:08;15.00;71.20
42835;DHT22;29335;50.526;30.458;2022-10-17T15:56:41;15.00;71.50
42835;DHT22;29335;50.526;30.458;2022-10-17T15:59:16;15.00;71.80
42835;DHT22;29335;50.526;30.458;2022-10-17T16:01:43;15.20;72.10
42835;DHT22;29335;50.526;30.458;2022-10-17T16:04:12;14.90;72.10
42835;DHT22;29335;50.526;30.458;2022-10-17T16:06:40;14.90;72.20
42835;DHT22;29335;50.526;30.458;2022-10-17T16:09:05;14.90;72.30
42835;DHT22;29335;50.526;30.458;2022-10-17T16:11:40;15.20;72.80
42835;DHT22;29335;50.526;30.458;2022-10-17T16:14:11;14.80;72.70
42835;DHT22;29335;50.526;30.458;2022-10-17T16:16:37;14.80;72.90
42835;DHT22;29335;50.526;30.458;2022-10-17T16:19:03;14.90;73.30
42835;DHT22;29335;50.526;30.458;2022-10-17T16:21:32;14.70;73.80
42835;DHT22;29335;50.526;30.458;2022-10-17T16:23:58;14.70;73.10
42835;DHT22;29335;50.526;30.458;2022-10-17T16:26:25;14.60;73.20
42835;DHT22;29335;50.526;30.458;2022-10-17T16:28:50;14.70;73.20
42835;DHT22;29335;50.526;30.458;2022-10-17T16:31:22;14.60;73.40
42835;DHT22;29335;50.526;30.458;2022-10-17T16:33:50;14.40;73.60
42835;DHT22;29335;50.526;30.458;2022-10-17T16:36:16;14.40;73.90
42835;DHT22;29335;50.526;30.458;2022-10-17T16:38:42;14.40;73.90
42835;DHT22;29335;50.526;30.458;2022-10-17T16:41:28;14.80;74.40
42835;DHT22;29335;50.526;30.458;2022-10-17T16:43:56;14.40;74.50
42835;DHT22;29335;50.526;30.458;2022-10-17T16:46:23;14.30;74.10
42835;DHT22;29335;50.526;30.458;2022-10-17T16:48:49;14.30;74.20
42835;DHT22;29335;50.526;30.458;2022-10-17T16:51:16;15.50;75.00
42835;DHT22;29335;50.526;30.458;2022-10-17T16:53:44;14.20;74.30
42835;DHT22;29335;50.526;30.458;2022-10-17T16:56:15;14.10;74.30
42835;DHT22;29335;50.526;30.458;2022-10-17T16:58:41;14.10;74.60
42835;DHT22;29335;50.526;30.458;2022-10-17T17:01:09;14.00;74.60
42835;DHT22;29335;50.526;30.458;2022-10-17T17:03:40;16.50;75.80
42835;DHT22;29335;50.526;30.458;2022-10-17T17:06:07;14.00;74.30
42835;DHT22;29335;50.526;30.458;2022-10-17T17:08:34;14.00;74.20
42835;DHT22;29335;50.526;30.458;2022-10-17T17:11:06;14.10;74.60
42835;DHT22;29335;50.526;30.458;2022-10-17T17:13:32;14.00;74.60
42835;DHT22;29335;50.526;30.458;2022-10-17T17:16:10;13.90;74.70
42835;DHT22;29335;50.526;30.458;2022-10-17T17:18:36;14.60;75.10
42835;DHT22;29335;50.526;30.458;2022-10-17T17:21:04;14.00;74.50
42835;DHT22;29335;50.526;30.458;2022-10-17T17:23:32;13.90;74.40
42835;DHT22;29335;50.526;30.458;2022-10-17T17:26:04;14.00;74.20
42835;DHT22;29335;50.526;30.458;2022-10-17T17:28:31;14.10;74.20
42835;DHT22;29335;50.526;30.458;2022-10-17T17:30:57;14.50;74.40
42835;DHT22;29335;50.526;30.458;2022-10-17T17:33:24;13.90;74.10
42835;DHT22;29335;50.526;30.458;2022-10-17T17:35:57;14.00;73.90
42835;DHT22;29335;50.526;30.458;2022-10-17T17:38:24;14.10;73.70
42835;DHT22;29335;50.526;30.458;2022-10-17T17:40:50;14.00;73.60